Terminal Aerodrome Forecast
Issued by NWS Hastings, NE

Home | Current Version | Previous Version | Text Only | Print | Product List | Glossary On
Versions: 1 2 3 4 5 6 7 8 9 10 11 12 13 14 15 16 17 18 19 20 21 22 23
000
FTUS43 KGID 032320
TAFGRI
TAF
KGRI 032320Z 0400/0424 15012G18KT P6SM SCT200
     FM040300 16013KT P6SM BKN200 WS010/19036KT
     FM041200 16012KT P6SM SCT200
     FM041600 17017G24KT P6SM SCT120=

USA.gov is the U.S. government's official web portal to all federal, state and local government web resources and services.